sensor_id;sensor_type;location;lat;lon;timestamp;P1;durP1;ratioP1;P2;durP2;ratioP2
44919;SDS011;30655;53.094;6.072;2022-09-30T00:01:01;5.75;;;5.07;;
44919;SDS011;30655;53.094;6.072;2022-09-30T00:03:38;6.38;;;5.97;;
44919;SDS011;30655;53.094;6.072;2022-09-30T00:06:09;5.13;;;4.63;;
44919;SDS011;30655;53.094;6.072;2022-09-30T00:08:38;4.90;;;4.60;;
44919;SDS011;30655;53.094;6.072;2022-09-30T00:11:19;5.15;;;4.68;;
44919;SDS011;30655;53.094;6.072;2022-09-30T00:13:51;4.70;;;4.40;;
44919;SDS011;30655;53.094;6.072;2022-09-30T00:16:22;4.47;;;4.07;;
44919;SDS011;30655;53.094;6.072;2022-09-30T00:18:56;4.47;;;4.03;;
44919;SDS011;30655;53.094;6.072;2022-09-30T00:21:24;4.18;;;3.97;;
44919;SDS011;30655;53.094;6.072;2022-09-30T00:23:52;4.32;;;3.92;;
44919;SDS011;30655;53.094;6.072;2022-09-30T00:26:20;4.43;;;4.13;;
44919;SDS011;30655;53.094;6.072;2022-09-30T00:28:52;5.05;;;3.90;;
44919;SDS011;30655;53.094;6.072;2022-09-30T00:36:44;4.45;;;4.15;;
44919;SDS011;30655;53.094;6.072;2022-09-30T00:39:17;4.07;;;3.45;;
44919;SDS011;30655;53.094;6.072;2022-09-30T00:41:50;4.03;;;3.80;;
44919;SDS011;30655;53.094;6.072;2022-09-30T00:47:24;4.50;;;4.20;;
44919;SDS011;30655;53.094;6.072;2022-09-30T00:50:09;6.13;;;3.60;;
44919;SDS011;30655;53.094;6.072;2022-09-30T00:52:41;4.55;;;4.15;;
44919;SDS011;30655;53.094;6.072;2022-09-30T00:55:28;4.28;;;3.97;;
44919;SDS011;30655;53.094;6.072;2022-09-30T00:58:02;3.80;;;3.60;;
44919;SDS011;30655;53.094;6.072;2022-09-30T01:00:41;4.68;;;4.30;;
44919;SDS011;30655;53.094;6.072;2022-09-30T01:03:08;5.30;;;4.82;;
44919;SDS011;30655;53.094;6.072;2022-09-30T01:05:36;3.97;;;3.67;;
44919;SDS011;30655;53.094;6.072;2022-09-30T01:08:05;4.10;;;3.83;;
44919;SDS011;30655;53.094;6.072;2022-09-30T01:10:42;4.05;;;3.58;;
44919;SDS011;30655;53.094;6.072;2022-09-30T01:13:09;4.32;;;4.00;;
44919;SDS011;30655;53.094;6.072;2022-09-30T01:15:44;3.90;;;3.70;;
44919;SDS011;30655;53.094;6.072;2022-09-30T01:18:28;4.47;;;3.33;;
44919;SDS011;30655;53.094;6.072;2022-09-30T01:21:39;4.80;;;4.50;;
44919;SDS011;30655;53.094;6.072;2022-09-30T01:27:26;4.20;;;3.95;;
44919;SDS011;30655;53.094;6.072;2022-09-30T01:30:14;4.05;;;3.72;;
44919;SDS011;30655;53.094;6.072;2022-09-30T01:32:54;4.00;;;3.70;;
44919;SDS011;30655;53.094;6.072;2022-09-30T01:35:33;2.83;;;2.60;;
44919;SDS011;30655;53.094;6.072;2022-09-30T01:38:23;4.40;;;4.00;;
44919;SDS011;30655;53.094;6.072;2022-09-30T01:41:02;3.92;;;3.50;;
44919;SDS011;30655;53.094;6.072;2022-09-30T01:43:36;3.85;;;3.42;;
44919;SDS011;30655;53.094;6.072;2022-09-30T01:46:27;4.05;;;3.60;;
44919;SDS011;30655;53.094;6.072;2022-09-30T01:49:15;5.32;;;3.85;;
44919;SDS011;30655;53.094;6.072;2022-09-30T01:51:48;22.95;;;5.43;;
44919;SDS011;30655;53.094;6.072;2022-09-30T01:54:24;7.07;;;5.35;;
44919;SDS011;30655;53.094;6.072;2022-09-30T01:57:01;4.70;;;4.40;;
44919;SDS011;30655;53.094;6.072;2022-09-30T01:59:33;4.65;;;4.25;;
44919;SDS011;30655;53.094;6.072;2022-09-30T02:02:07;4.90;;;4.60;;
44919;SDS011;30655;53.094;6.072;2022-09-30T02:04:44;6.15;;;4.10;;
44919;SDS011;30655;53.094;6.072;2022-09-30T02:07:19;15.50;;;4.60;;
44919;SDS011;30655;53.094;6.072;2022-09-30T02:09:51;4.90;;;4.50;;
44919;SDS011;30655;53.094;6.072;2022-09-30T02:12:24;3.80;;;3.53;;
44919;SDS011;30655;53.094;6.072;2022-09-30T02:14:58;4.43;;;4.05;;
44919;SDS011;30655;53.094;6.072;2022-09-30T02:17:28;4.95;;;4.65;;
44919;SDS011;30655;53.094;6.072;2022-09-30T02:20:02;4.63;;;4.18;;
44919;SDS011;30655;53.094;6.072;2022-09-30T02:22:37;12.93;;;3.90;;
44919;SDS011;30655;53.094;6.072;2022-09-30T02:25:06;18.02;;;3.90;;
44919;SDS011;30655;53.094;6.072;2022-09-30T02:27:36;27.25;;;4.00;;
44919;SDS011;30655;53.094;6.072;2022-09-30T02:30:05;44.90;;;4.20;;
44919;SDS011;30655;53.094;6.072;2022-09-30T02:32:37;49.45;;;3.95;;
44919;SDS011;30655;53.094;6.072;2022-09-30T02:35:12;25.88;;;3.58;;
44919;SDS011;30655;53.094;6.072;2022-09-30T02:37:47;43.10;;;3.58;;
44919;SDS011;30655;53.094;6.072;2022-09-30T02:40:19;14.05;;;3.30;;
44919;SDS011;30655;53.094;6.072;2022-09-30T02:42:50;23.95;;;4.05;;
44919;SDS011;30655;53.094;6.072;2022-09-30T02:45:19;40.80;;;4.60;;
44919;SDS011;30655;53.094;6.072;2022-09-30T02:47:55;28.05;;;4.28;;
44919;SDS011;30655;53.094;6.072;2022-09-30T02:50:34;27.20;;;4.72;;
44919;SDS011;30655;53.094;6.072;2022-09-30T02:53:12;9.05;;;3.88;;
44919;SDS011;30655;53.094;6.072;2022-09-30T02:55:52;71.97;;;5.88;;
44919;SDS011;30655;53.094;6.072;2022-09-30T02:58:40;8.63;;;5.05;;
44919;SDS011;30655;53.094;6.072;2022-09-30T03:01:08;11.02;;;3.97;;
44919;SDS011;30655;53.094;6.072;2022-09-30T03:03:38;9.13;;;3.90;;
44919;SDS011;30655;53.094;6.072;2022-09-30T03:06:10;4.25;;;3.88;;
44919;SDS011;30655;53.094;6.072;2022-09-30T03:08:39;9.10;;;4.70;;
44919;SDS011;30655;53.094;6.072;2022-09-30T03:11:07;4.57;;;3.88;;
44919;SDS011;30655;53.094;6.072;2022-09-30T03:13:54;4.75;;;4.07;;
44919;SDS011;30655;53.094;6.072;2022-09-30T03:16:42;4.15;;;3.38;;
44919;SDS011;30655;53.094;6.072;2022-09-30T03:19:32;3.42;;;3.17;;
44919;SDS011;30655;53.094;6.072;2022-09-30T03:22:24;4.00;;;3.80;;
44919;SDS011;30655;53.094;6.072;2022-09-30T03:25:05;3.70;;;3.50;;
44919;SDS011;30655;53.094;6.072;2022-09-30T03:27:43;3.95;;;3.65;;
44919;SDS011;30655;53.094;6.072;2022-09-30T03:30:21;5.45;;;4.95;;
44919;SDS011;30655;53.094;6.072;2022-09-30T03:32:54;4.47;;;4.18;;
44919;SDS011;30655;53.094;6.072;2022-09-30T03:35:29;5.18;;;4.85;;
44919;SDS011;30655;53.094;6.072;2022-09-30T03:38:05;4.88;;;4.57;;
44919;SDS011;30655;53.094;6.072;2022-09-30T03:40:42;5.18;;;4.85;;
44919;SDS011;30655;53.094;6.072;2022-09-30T03:43:19;5.55;;;5.00;;
44919;SDS011;30655;53.094;6.072;2022-09-30T03:45:54;5.45;;;5.15;;
44919;SDS011;30655;53.094;6.072;2022-09-30T03:48:25;7.10;;;6.38;;
44919;SDS011;30655;53.094;6.072;2022-09-30T03:50:54;5.75;;;5.35;;
44919;SDS011;30655;53.094;6.072;2022-09-30T03:53:24;5.55;;;5.15;;
44919;SDS011;30655;53.094;6.072;2022-09-30T03:55:53;5.88;;;5.47;;
44919;SDS011;30655;53.094;6.072;2022-09-30T03:58:23;6.35;;;5.95;;
44919;SDS011;30655;53.094;6.072;2022-09-30T04:00:58;5.40;;;5.10;;
44919;SDS011;30655;53.094;6.072;2022-09-30T04:03:29;23.15;;;5.95;;
44919;SDS011;30655;53.094;6.072;2022-09-30T04:05:59;5.55;;;5.15;;
44919;SDS011;30655;53.094;6.072;2022-09-30T04:08:31;7.93;;;6.03;;
44919;SDS011;30655;53.094;6.072;2022-09-30T04:10:59;6.00;;;5.57;;
44919;SDS011;30655;53.094;6.072;2022-09-30T04:13:26;5.60;;;5.15;;
44919;SDS011;30655;53.094;6.072;2022-09-30T04:15:53;5.70;;;5.30;;
44919;SDS011;30655;53.094;6.072;2022-09-30T04:18:20;6.82;;;5.40;;
44919;SDS011;30655;53.094;6.072;2022-09-30T04:20:46;5.25;;;4.95;;
44919;SDS011;30655;53.094;6.072;2022-09-30T04:23:13;8.80;;;7.05;;
44919;SDS011;30655;53.094;6.072;2022-09-30T04:25:42;5.22;;;4.88;;
44919;SDS011;30655;53.094;6.072;2022-09-30T04:28:09;5.95;;;5.00;;
44919;SDS011;30655;53.094;6.072;2022-09-30T04:30:36;5.03;;;4.70;;
44919;SDS011;30655;53.094;6.072;2022-09-30T04:33:03;4.93;;;4.63;;
44919;SDS011;30655;53.094;6.072;2022-09-30T04:35:31;5.68;;;4.70;;
44919;SDS011;30655;53.094;6.072;2022-09-30T04:37:59;5.78;;;5.40;;
44919;SDS011;30655;53.094;6.072;2022-09-30T04:40:26;5.75;;;5.25;;
44919;SDS011;30655;53.094;6.072;2022-09-30T04:42:56;6.70;;;6.18;;
44919;SDS011;30655;53.094;6.072;2022-09-30T04:45:22;5.43;;;5.03;;
44919;SDS011;30655;53.094;6.072;2022-09-30T04:47:52;5.50;;;5.10;;
44919;SDS011;30655;53.094;6.072;2022-09-30T04:50:19;5.90;;;5.55;;
44919;SDS011;30655;53.094;6.072;2022-09-30T04:52:46;9.63;;;5.53;;
44919;SDS011;30655;53.094;6.072;2022-09-30T04:55:16;6.05;;;5.60;;
44919;SDS011;30655;53.094;6.072;2022-09-30T04:57:48;7.00;;;6.50;;
44919;SDS011;30655;53.094;6.072;2022-09-30T05:00:17;6.45;;;5.93;;
44919;SDS011;30655;53.094;6.072;2022-09-30T05:02:51;5.38;;;5.03;;
44919;SDS011;30655;53.094;6.072;2022-09-30T05:05:23;6.40;;;5.90;;
44919;SDS011;30655;53.094;6.072;2022-09-30T05:07:57;5.45;;;5.07;;
44919;SDS011;30655;53.094;6.072;2022-09-30T05:11:00;6.20;;;5.70;;
44919;SDS011;30655;53.094;6.072;2022-09-30T05:13:46;6.75;;;6.15;;
44919;SDS011;30655;53.094;6.072;2022-09-30T05:16:23;8.20;;;4.60;;
44919;SDS011;30655;53.094;6.072;2022-09-30T05:19:04;6.05;;;5.20;;
44919;SDS011;30655;53.094;6.072;2022-09-30T05:21:35;4.68;;;4.38;;
44919;SDS011;30655;53.094;6.072;2022-09-30T05:24:10;4.68;;;4.38;;
44919;SDS011;30655;53.094;6.072;2022-09-30T05:26:50;4.85;;;4.13;;
44919;SDS011;30655;53.094;6.072;2022-09-30T05:29:22;6.05;;;5.35;;
44919;SDS011;30655;53.094;6.072;2022-09-30T05:31:55;5.20;;;4.88;;
44919;SDS011;30655;53.094;6.072;2022-09-30T05:34:28;4.93;;;4.63;;
44919;SDS011;30655;53.094;6.072;2022-09-30T05:36:57;6.20;;;5.10;;
44919;SDS011;30655;53.094;6.072;2022-09-30T05:39:27;5.35;;;5.03;;
44919;SDS011;30655;53.094;6.072;2022-09-30T05:41:56;5.53;;;5.13;;
44919;SDS011;30655;53.094;6.072;2022-09-30T05:44:25;6.05;;;5.60;;
44919;SDS011;30655;53.094;6.072;2022-09-30T05:46:51;5.55;;;5.15;;
44919;SDS011;30655;53.094;6.072;2022-09-30T05:49:22;6.10;;;5.50;;
44919;SDS011;30655;53.094;6.072;2022-09-30T05:51:50;6.28;;;5.38;;
44919;SDS011;30655;53.094;6.072;2022-09-30T05:54:17;5.20;;;4.90;;
44919;SDS011;30655;53.094;6.072;2022-09-30T05:56:43;6.00;;;5.10;;
44919;SDS011;30655;53.094;6.072;2022-09-30T05:59:18;5.38;;;4.90;;
44919;SDS011;30655;53.094;6.072;2022-09-30T06:01:46;6.75;;;6.13;;
44919;SDS011;30655;53.094;6.072;2022-09-30T06:04:15;6.13;;;5.63;;
44919;SDS011;30655;53.094;6.072;2022-09-30T06:06:47;6.28;;;5.88;;
44919;SDS011;30655;53.094;6.072;2022-09-30T06:09:18;5.78;;;5.38;;
44919;SDS011;30655;53.094;6.072;2022-09-30T06:11:45;6.10;;;5.70;;
44919;SDS011;30655;53.094;6.072;2022-09-30T06:14:15;6.30;;;5.80;;
44919;SDS011;30655;53.094;6.072;2022-09-30T06:16:42;6.53;;;6.05;;
44919;SDS011;30655;53.094;6.072;2022-09-30T06:19:09;6.55;;;6.05;;
44919;SDS011;30655;53.094;6.072;2022-09-30T06:21:36;5.85;;;5.45;;
44919;SDS011;30655;53.094;6.072;2022-09-30T06:24:07;8.50;;;7.68;;
44919;SDS011;30655;53.094;6.072;2022-09-30T06:26:34;7.40;;;6.88;;
44919;SDS011;30655;53.094;6.072;2022-09-30T06:29:01;9.13;;;8.18;;
44919;SDS011;30655;53.094;6.072;2022-09-30T06:31:28;7.25;;;6.72;;
44919;SDS011;30655;53.094;6.072;2022-09-30T06:33:55;6.95;;;6.45;;
44919;SDS011;30655;53.094;6.072;2022-09-30T06:36:22;8.40;;;7.78;;
44919;SDS011;30655;53.094;6.072;2022-09-30T06:38:54;8.52;;;7.57;;
44919;SDS011;30655;53.094;6.072;2022-09-30T06:41:24;9.75;;;8.93;;
44919;SDS011;30655;53.094;6.072;2022-09-30T06:43:55;10.35;;;9.38;;
44919;SDS011;30655;53.094;6.072;2022-09-30T06:46:28;8.57;;;7.75;;
44919;SDS011;30655;53.094;6.072;2022-09-30T06:48:57;8.20;;;7.40;;
44919;SDS011;30655;53.094;6.072;2022-09-30T06:51:39;22.38;;;17.05;;
44919;SDS011;30655;53.094;6.072;2022-09-30T06:54:07;27.00;;;18.65;;
44919;SDS011;30655;53.094;6.072;2022-09-30T06:56:38;14.32;;;12.85;;
44919;SDS011;30655;53.094;6.072;2022-09-30T06:59:06;12.82;;;11.52;;
44919;SDS011;30655;53.094;6.072;2022-09-30T07:01:33;18.35;;;10.77;;
44919;SDS011;30655;53.094;6.072;2022-09-30T07:04:01;13.45;;;11.85;;
44919;SDS011;30655;53.094;6.072;2022-09-30T07:06:29;13.13;;;11.98;;
44919;SDS011;30655;53.094;6.072;2022-09-30T07:08:56;12.85;;;11.55;;
44919;SDS011;30655;53.094;6.072;2022-09-30T07:11:26;13.50;;;11.07;;
44919;SDS011;30655;53.094;6.072;2022-09-30T07:13:59;15.30;;;13.77;;
44919;SDS011;30655;53.094;6.072;2022-09-30T07:16:29;19.85;;;14.90;;
44919;SDS011;30655;53.094;6.072;2022-09-30T07:18:56;19.38;;;15.88;;
44919;SDS011;30655;53.094;6.072;2022-09-30T07:21:23;15.65;;;13.70;;
44919;SDS011;30655;53.094;6.072;2022-09-30T07:23:56;18.58;;;15.60;;
44919;SDS011;30655;53.094;6.072;2022-09-30T07:26:25;20.90;;;17.23;;
44919;SDS011;30655;53.094;6.072;2022-09-30T07:28:58;35.55;;;23.30;;
44919;SDS011;30655;53.094;6.072;2022-09-30T07:31:31;28.20;;;20.55;;
44919;SDS011;30655;53.094;6.072;2022-09-30T07:34:03;29.42;;;18.17;;
44919;SDS011;30655;53.094;6.072;2022-09-30T07:36:34;46.90;;;17.63;;
44919;SDS011;30655;53.094;6.072;2022-09-30T07:39:04;129.68;;;23.55;;
44919;SDS011;30655;53.094;6.072;2022-09-30T07:41:39;207.50;;;21.77;;
44919;SDS011;30655;53.094;6.072;2022-09-30T07:44:52;85.57;;;17.27;;
44919;SDS011;30655;53.094;6.072;2022-09-30T07:47:22;141.43;;;18.95;;
44919;SDS011;30655;53.094;6.072;2022-09-30T07:49:55;105.88;;;17.58;;
44919;SDS011;30655;53.094;6.072;2022-09-30T07:52:22;117.40;;;15.23;;
44919;SDS011;30655;53.094;6.072;2022-09-30T07:54:49;120.93;;;17.55;;
44919;SDS011;30655;53.094;6.072;2022-09-30T07:57:27;128.48;;;17.23;;
44919;SDS011;30655;53.094;6.072;2022-09-30T07:59:56;77.50;;;15.65;;
44919;SDS011;30655;53.094;6.072;2022-09-30T08:02:44;65.55;;;15.43;;
44919;SDS011;30655;53.094;6.072;2022-09-30T08:05:12;60.13;;;15.15;;
44919;SDS011;30655;53.094;6.072;2022-09-30T08:07:45;141.00;;;23.85;;
44919;SDS011;30655;53.094;6.072;2022-09-30T08:10:12;59.58;;;13.85;;
44919;SDS011;30655;53.094;6.072;2022-09-30T08:12:39;62.83;;;13.52;;
44919;SDS011;30655;53.094;6.072;2022-09-30T08:18:11;47.72;;;12.77;;
44919;SDS011;30655;53.094;6.072;2022-09-30T08:20:45;35.22;;;13.82;;
44919;SDS011;30655;53.094;6.072;2022-09-30T08:23:16;49.08;;;16.30;;
44919;SDS011;30655;53.094;6.072;2022-09-30T08:25:59;29.67;;;14.80;;
44919;SDS011;30655;53.094;6.072;2022-09-30T08:28:29;37.95;;;14.57;;
44919;SDS011;30655;53.094;6.072;2022-09-30T08:31:09;68.25;;;15.32;;
44919;SDS011;30655;53.094;6.072;2022-09-30T08:33:56;64.00;;;17.40;;
44919;SDS011;30655;53.094;6.072;2022-09-30T08:36:26;26.05;;;13.52;;
44919;SDS011;30655;53.094;6.072;2022-09-30T08:38:56;47.13;;;16.90;;
44919;SDS011;30655;53.094;6.072;2022-09-30T08:41:39;86.45;;;20.45;;
44919;SDS011;30655;53.094;6.072;2022-09-30T08:44:50;23.05;;;15.00;;
44919;SDS011;30655;53.094;6.072;2022-09-30T08:47:35;15.05;;;13.55;;
44919;SDS011;30655;53.094;6.072;2022-09-30T08:50:22;16.98;;;15.25;;
44919;SDS011;30655;53.094;6.072;2022-09-30T08:52:56;15.80;;;14.20;;
44919;SDS011;30655;53.094;6.072;2022-09-30T08:55:38;15.75;;;13.52;;
44919;SDS011;30655;53.094;6.072;2022-09-30T08:58:14;12.75;;;11.95;;
44919;SDS011;30655;53.094;6.072;2022-09-30T09:00:54;12.48;;;11.48;;
44919;SDS011;30655;53.094;6.072;2022-09-30T09:03:38;13.32;;;12.25;;
44919;SDS011;30655;53.094;6.072;2022-09-30T09:06:12;13.05;;;12.07;;
44919;SDS011;30655;53.094;6.072;2022-09-30T09:09:17;14.65;;;13.38;;
44919;SDS011;30655;53.094;6.072;2022-09-30T09:12:10;15.38;;;14.10;;
44919;SDS011;30655;53.094;6.072;2022-09-30T09:14:57;15.80;;;14.43;;
44919;SDS011;30655;53.094;6.072;2022-09-30T09:17:51;14.95;;;13.55;;
44919;SDS011;30655;53.094;6.072;2022-09-30T09:20:57;18.65;;;16.65;;
44919;SDS011;30655;53.094;6.072;2022-09-30T09:23:33;18.73;;;16.73;;
44919;SDS011;30655;53.094;6.072;2022-09-30T09:26:04;20.73;;;18.60;;
44919;SDS011;30655;53.094;6.072;2022-09-30T09:28:38;20.90;;;18.90;;
44919;SDS011;30655;53.094;6.072;2022-09-30T09:31:34;20.33;;;18.33;;
44919;SDS011;30655;53.094;6.072;2022-09-30T09:34:17;20.75;;;18.70;;
44919;SDS011;30655;53.094;6.072;2022-09-30T09:39:41;21.65;;;19.50;;
44919;SDS011;30655;53.094;6.072;2022-09-30T09:42:44;22.08;;;19.95;;
44919;SDS011;30655;53.094;6.072;2022-09-30T09:45:29;19.95;;;17.95;;
44919;SDS011;30655;53.094;6.072;2022-09-30T09:48:33;19.45;;;17.63;;
44919;SDS011;30655;53.094;6.072;2022-09-30T09:51:18;16.30;;;14.88;;
44919;SDS011;30655;53.094;6.072;2022-09-30T09:53:57;12.80;;;11.90;;
44919;SDS011;30655;53.094;6.072;2022-09-30T09:56:32;10.32;;;9.60;;
44919;SDS011;30655;53.094;6.072;2022-09-30T09:59:06;11.85;;;10.95;;
44919;SDS011;30655;53.094;6.072;2022-09-30T10:01:49;9.68;;;8.73;;
44919;SDS011;30655;53.094;6.072;2022-09-30T10:04:25;7.03;;;6.43;;
44919;SDS011;30655;53.094;6.072;2022-09-30T10:07:12;6.43;;;6.03;;
44919;SDS011;30655;53.094;6.072;2022-09-30T10:10:03;5.43;;;4.93;;
44919;SDS011;30655;53.094;6.072;2022-09-30T10:12:41;4.05;;;3.85;;
44919;SDS011;30655;53.094;6.072;2022-09-30T10:15:26;3.20;;;3.00;;
44919;SDS011;30655;53.094;6.072;2022-09-30T10:18:02;3.45;;;1.80;;
44919;SDS011;30655;53.094;6.072;2022-09-30T10:20:56;2.10;;;2.00;;
44919;SDS011;30655;53.094;6.072;2022-09-30T10:23:32;2.53;;;2.42;;
44919;SDS011;30655;53.094;6.072;2022-09-30T10:26:17;3.30;;;2.40;;
44919;SDS011;30655;53.094;6.072;2022-09-30T10:28:59;2.13;;;2.03;;
44919;SDS011;30655;53.094;6.072;2022-09-30T10:34:55;4.15;;;3.85;;
44919;SDS011;30655;53.094;6.072;2022-09-30T10:37:51;3.38;;;3.10;;
44919;SDS011;30655;53.094;6.072;2022-09-30T10:40:28;4.25;;;3.40;;
44919;SDS011;30655;53.094;6.072;2022-09-30T10:43:03;3.67;;;3.38;;
44919;SDS011;30655;53.094;6.072;2022-09-30T10:45:34;3.95;;;3.58;;
44919;SDS011;30655;53.094;6.072;2022-09-30T10:48:26;4.05;;;3.30;;
44919;SDS011;30655;53.094;6.072;2022-09-30T10:51:01;4.57;;;2.65;;
44919;SDS011;30655;53.094;6.072;2022-09-30T10:53:36;5.00;;;2.80;;
44919;SDS011;30655;53.094;6.072;2022-09-30T10:56:13;2.65;;;2.42;;
44919;SDS011;30655;53.094;6.072;2022-09-30T10:59:02;3.45;;;2.45;;
44919;SDS011;30655;53.094;6.072;2022-09-30T11:08:43;1.83;;;1.35;;
44919;SDS011;30655;53.094;6.072;2022-09-30T11:11:44;1.60;;;1.35;;
44919;SDS011;30655;53.094;6.072;2022-09-30T11:14:30;2.35;;;1.50;;
44919;SDS011;30655;53.094;6.072;2022-09-30T11:17:10;1.20;;;1.20;;
44919;SDS011;30655;53.094;6.072;2022-09-30T11:20:01;1.60;;;1.08;;
44919;SDS011;30655;53.094;6.072;2022-09-30T11:22:50;1.98;;;1.88;;
44919;SDS011;30655;53.094;6.072;2022-09-30T11:25:23;2.35;;;2.13;;
44919;SDS011;30655;53.094;6.072;2022-09-30T11:27:57;4.93;;;2.33;;
44919;SDS011;30655;53.094;6.072;2022-09-30T11:31:03;2.17;;;2.03;;
44919;SDS011;30655;53.094;6.072;2022-09-30T11:34:03;2.92;;;2.45;;
44919;SDS011;30655;53.094;6.072;2022-09-30T11:37:07;2.83;;;2.10;;
44919;SDS011;30655;53.094;6.072;2022-09-30T11:40:20;2.38;;;1.40;;
44919;SDS011;30655;53.094;6.072;2022-09-30T11:43:07;1.33;;;1.20;;
44919;SDS011;30655;53.094;6.072;2022-09-30T11:52:26;1.38;;;1.20;;
44919;SDS011;30655;53.094;6.072;2022-09-30T11:55:27;1.38;;;1.27;;
44919;SDS011;30655;53.094;6.072;2022-09-30T11:58:30;1.20;;;1.10;;
44919;SDS011;30655;53.094;6.072;2022-09-30T12:04:25;1.20;;;1.10;;
44919;SDS011;30655;53.094;6.072;2022-09-30T12:10:02;4.00;;;1.33;;
44919;SDS011;30655;53.094;6.072;2022-09-30T12:12:52;1.40;;;1.30;;
44919;SDS011;30655;53.094;6.072;2022-09-30T12:15:29;2.00;;;0.90;;
44919;SDS011;30655;53.094;6.072;2022-09-30T12:18:09;1.48;;;1.38;;
44919;SDS011;30655;53.094;6.072;2022-09-30T12:20:55;1.60;;;1.50;;
44919;SDS011;30655;53.094;6.072;2022-09-30T12:23:46;1.40;;;1.30;;
44919;SDS011;30655;53.094;6.072;2022-09-30T12:26:30;3.75;;;1.30;;
44919;SDS011;30655;53.094;6.072;2022-09-30T12:29:23;2.60;;;1.27;;
44919;SDS011;30655;53.094;6.072;2022-09-30T12:32:39;2.47;;;1.10;;
44919;SDS011;30655;53.094;6.072;2022-09-30T12:39:22;1.50;;;1.40;;
44919;SDS011;30655;53.094;6.072;2022-09-30T12:48:56;2.40;;;1.83;;
44919;SDS011;30655;53.094;6.072;2022-09-30T12:51:48;2.42;;;1.17;;
44919;SDS011;30655;53.094;6.072;2022-09-30T12:54:43;1.67;;;1.10;;
44919;SDS011;30655;53.094;6.072;2022-09-30T12:57:19;2.55;;;1.45;;
44919;SDS011;30655;53.094;6.072;2022-09-30T13:00:05;2.13;;;1.67;;
44919;SDS011;30655;53.094;6.072;2022-09-30T13:03:47;1.77;;;1.67;;
44919;SDS011;30655;53.094;6.072;2022-09-30T13:07:18;1.55;;;1.20;;
44919;SDS011;30655;53.094;6.072;2022-09-30T13:10:23;1.85;;;1.23;;
44919;SDS011;30655;53.094;6.072;2022-09-30T13:13:30;2.15;;;1.30;;
44919;SDS011;30655;53.094;6.072;2022-09-30T13:36:31;1.40;;;1.30;;
44919;SDS011;30655;53.094;6.072;2022-09-30T13:39:21;1.85;;;1.45;;
44919;SDS011;30655;53.094;6.072;2022-09-30T13:45:11;2.33;;;2.10;;
44919;SDS011;30655;53.094;6.072;2022-09-30T13:48:09;6.00;;;2.50;;
44919;SDS011;30655;53.094;6.072;2022-09-30T13:50:46;2.17;;;2.08;;
44919;SDS011;30655;53.094;6.072;2022-09-30T13:54:09;2.38;;;2.15;;
44919;SDS011;30655;53.094;6.072;2022-09-30T13:57:22;4.07;;;2.20;;
44919;SDS011;30655;53.094;6.072;2022-09-30T14:00:32;5.95;;;2.67;;
44919;SDS011;30655;53.094;6.072;2022-09-30T14:03:40;2.50;;;2.30;;
44919;SDS011;30655;53.094;6.072;2022-09-30T14:06:45;2.15;;;1.60;;
44919;SDS011;30655;53.094;6.072;2022-09-30T14:31:34;2.50;;;0.90;;
44919;SDS011;30655;53.094;6.072;2022-09-30T14:40:00;1.98;;;1.10;;
44919;SDS011;30655;53.094;6.072;2022-09-30T15:07:46;2.08;;;0.95;;
44919;SDS011;30655;53.094;6.072;2022-09-30T15:25:14;2.95;;;0.95;;
44919;SDS011;30655;53.094;6.072;2022-09-30T15:28:02;1.60;;;0.80;;
44919;SDS011;30655;53.094;6.072;2022-09-30T15:31:16;1.65;;;1.00;;
44919;SDS011;30655;53.094;6.072;2022-09-30T15:35:36;3.80;;;0.93;;
44919;SDS011;30655;53.094;6.072;2022-09-30T15:37:22;0.80;;;0.80;;
44919;SDS011;30655;53.094;6.072;2022-09-30T15:40:26;2.60;;;1.15;;
44919;SDS011;30655;53.094;6.072;2022-09-30T15:43:28;1.85;;;1.20;;
44919;SDS011;30655;53.094;6.072;2022-09-30T15:53:16;3.67;;;1.50;;
44919;SDS011;30655;53.094;6.072;2022-09-30T16:02:28;2.22;;;1.50;;
44919;SDS011;30655;53.094;6.072;2022-09-30T16:05:25;4.40;;;1.63;;
44919;SDS011;30655;53.094;6.072;2022-09-30T16:12:16;1.90;;;1.60;;
44919;SDS011;30655;53.094;6.072;2022-09-30T16:25:08;1.73;;;1.33;;
44919;SDS011;30655;53.094;6.072;2022-09-30T16:27:59;3.00;;;2.17;;
44919;SDS011;30655;53.094;6.072;2022-09-30T16:34:20;2.45;;;2.20;;
44919;SDS011;30655;53.094;6.072;2022-09-30T16:37:22;2.58;;;2.40;;
44919;SDS011;30655;53.094;6.072;2022-09-30T16:40:25;3.97;;;2.40;;
44919;SDS011;30655;53.094;6.072;2022-09-30T16:46:56;5.38;;;2.63;;
44919;SDS011;30655;53.094;6.072;2022-09-30T16:54:03;2.70;;;2.50;;
44919;SDS011;30655;53.094;6.072;2022-09-30T17:00:12;3.53;;;3.05;;
44919;SDS011;30655;53.094;6.072;2022-09-30T17:02:54;3.35;;;3.15;;
44919;SDS011;30655;53.094;6.072;2022-09-30T17:05:54;3.00;;;2.70;;
44919;SDS011;30655;53.094;6.072;2022-09-30T17:22:16;4.68;;;4.18;;
44919;SDS011;30655;53.094;6.072;2022-09-30T17:26:53;7.40;;;3.38;;
44919;SDS011;30655;53.094;6.072;2022-09-30T17:32:13;3.30;;;2.83;;
44919;SDS011;30655;53.094;6.072;2022-09-30T17:45:25;3.97;;;3.30;;
44919;SDS011;30655;53.094;6.072;2022-09-30T17:48:34;4.38;;;2.75;;
44919;SDS011;30655;53.094;6.072;2022-09-30T17:51:37;3.50;;;3.20;;
44919;SDS011;30655;53.094;6.072;2022-09-30T18:36:12;7.97;;;4.00;;
44919;SDS011;30655;53.094;6.072;2022-09-30T19:24:09;5.70;;;3.95;;
44919;SDS011;30655;53.094;6.072;2022-09-30T19:27:41;4.28;;;3.72;;
44919;SDS011;30655;53.094;6.072;2022-09-30T19:31:36;4.47;;;4.07;;
44919;SDS011;30655;53.094;6.072;2022-09-30T19:34:53;6.07;;;3.97;;
44919;SDS011;30655;53.094;6.072;2022-09-30T19:44:48;3.22;;;3.03;;
44919;SDS011;30655;53.094;6.072;2022-09-30T19:54:56;5.70;;;3.50;;
44919;SDS011;30655;53.094;6.072;2022-09-30T19:58:29;4.93;;;2.75;;
44919;SDS011;30655;53.094;6.072;2022-09-30T20:04:57;3.33;;;3.03;;
44919;SDS011;30655;53.094;6.072;2022-09-30T20:08:33;5.13;;;3.00;;
44919;SDS011;30655;53.094;6.072;2022-09-30T20:11:21;3.50;;;3.05;;
44919;SDS011;30655;53.094;6.072;2022-09-30T20:14:27;4.35;;;2.83;;
44919;SDS011;30655;53.094;6.072;2022-09-30T20:19:42;3.03;;;2.83;;
44919;SDS011;30655;53.094;6.072;2022-09-30T20:21:21;7.18;;;3.25;;
44919;SDS011;30655;53.094;6.072;2022-09-30T20:42:17;3.00;;;2.80;;
44919;SDS011;30655;53.094;6.072;2022-09-30T20:45:32;4.50;;;2.97;;
44919;SDS011;30655;53.094;6.072;2022-09-30T20:48:34;3.35;;;3.03;;
44919;SDS011;30655;53.094;6.072;2022-09-30T20:51:33;6.45;;;3.05;;
44919;SDS011;30655;53.094;6.072;2022-09-30T21:13:08;5.28;;;3.05;;
44919;SDS011;30655;53.094;6.072;2022-09-30T21:16:33;3.92;;;2.97;;
44919;SDS011;30655;53.094;6.072;2022-09-30T21:19:54;8.25;;;3.35;;
44919;SDS011;30655;53.094;6.072;2022-09-30T21:22:59;3.42;;;3.13;;
44919;SDS011;30655;53.094;6.072;2022-09-30T21:26:07;3.75;;;2.78;;
44919;SDS011;30655;53.094;6.072;2022-09-30T21:29:15;3.35;;;2.63;;
44919;SDS011;30655;53.094;6.072;2022-09-30T21:36:06;3.08;;;2.67;;
44919;SDS011;30655;53.094;6.072;2022-09-30T22:19:57;4.80;;;4.40;;
44919;SDS011;30655;53.094;6.072;2022-09-30T22:34:27;5.50;;;5.00;;
44919;SDS011;30655;53.094;6.072;2022-09-30T22:40:35;5.10;;;4.80;;
44919;SDS011;30655;53.094;6.072;2022-09-30T22:43:04;7.70;;;5.50;;
44919;SDS011;30655;53.094;6.072;2022-09-30T22:46:04;6.20;;;5.70;;
44919;SDS011;30655;53.094;6.072;2022-09-30T22:52:21;7.10;;;5.88;;
44919;SDS011;30655;53.094;6.072;2022-09-30T22:54:58;7.07;;;6.50;;
44919;SDS011;30655;53.094;6.072;2022-09-30T23:00:46;6.20;;;5.50;;
44919;SDS011;30655;53.094;6.072;2022-09-30T23:03:40;6.15;;;5.45;;
44919;SDS011;30655;53.094;6.072;2022-09-30T23:06:53;7.57;;;6.25;;
44919;SDS011;30655;53.094;6.072;2022-09-30T23:15:48;7.20;;;6.60;;